KLGU

Logan-Cache Airport

Logan, Utah, USA
METAR KLGU 261251Z AUTO 00000KT 10SM CLR 07/06 A2987 RMK AO2 SLP073 T00720056
Observed Flight Rules
May-26 @ 12:51 UTC (41 minutes ago) Visual Flight Rules
Visibility Clouds
10 miles
  • Clear skies
Temperatures Readings
Current 7°C / 45°F
Dewpoint 6°C / 43°F
Humidity 93%
Altimeter 29.87" Hg
Pressure 1007.3 hPa
Elevation 1355
METAR KLGU 261251Z AUTO 00000KT 10SM CLR 07/06 A2987 RMK AO2 SLP073 T00720056
Observed Flight Rules
May-26 @ 12:51 UTC
(41 minutes ago)
VFR
Clouds
  • Clear skies
Temperature Dewpoint
7°C / 45°F 6°C / 43°F
Humidity Altimeter Pressure
93% 29.87" Hg 1007.3 hPa